createdAt,value
2023-04-30T00:00:19.150Z,75.13
2023-04-30T00:02:46.152Z,75.24
2023-04-30T00:05:13.110Z,75.00
2023-04-30T00:07:42.350Z,75.05
2023-04-30T00:10:12.400Z,74.99
2023-04-30T00:12:39.141Z,74.80
2023-04-30T00:15:06.313Z,74.84
2023-04-30T00:17:33.046Z,74.81
2023-04-30T00:19:59.712Z,74.96
2023-04-30T00:22:26.373Z,74.69
2023-04-30T00:24:53.032Z,74.65
2023-04-30T00:27:19.681Z,75.04
2023-04-30T00:29:46.370Z,74.89
2023-04-30T00:32:13.105Z,75.05
2023-04-30T00:34:40.042Z,74.59
2023-04-30T00:37:06.715Z,74.58
2023-04-30T00:39:33.357Z,74.82
2023-04-30T00:42:00.008Z,74.73
2023-04-30T00:44:26.643Z,74.47
2023-04-30T00:46:53.464Z,74.45
2023-04-30T00:49:20.255Z,74.42
2023-04-30T00:51:47.208Z,74.52
2023-04-30T00:54:14.600Z,74.39
2023-04-30T00:56:41.600Z,74.41
2023-04-30T00:59:09.292Z,74.18
2023-04-30T01:01:36.302Z,74.47
2023-04-30T01:04:03.327Z,74.32
2023-04-30T01:06:30.224Z,74.64
2023-04-30T01:08:57.533Z,74.27
2023-04-30T01:11:51.980Z,74.61
2023-04-30T01:14:21.824Z,74.38
2023-04-30T01:17:17.458Z,74.54
2023-04-30T01:19:47.169Z,74.18
2023-04-30T01:22:36.976Z,74.38
2023-04-30T01:25:36.480Z,74.34
2023-04-30T01:28:09.166Z,74.37
2023-04-30T01:30:37.195Z,74.30
2023-04-30T01:33:04.277Z,73.90
2023-04-30T01:35:51.008Z,73.88
2023-04-30T01:38:35.595Z,73.86
2023-04-30T01:41:05.278Z,73.79
2023-04-30T01:44:06.748Z,73.71
2023-04-30T01:46:34.474Z,73.53
2023-04-30T01:49:27.212Z,73.63
2023-04-30T01:52:04.029Z,73.95
2023-04-30T01:54:52.855Z,73.90
2023-04-30T01:57:37.424Z,73.58
2023-04-30T02:00:04.989Z,73.82
2023-04-30T02:02:32.017Z,73.83
2023-04-30T02:04:58.821Z,73.47
2023-04-30T02:07:48.071Z,73.48
2023-04-30T02:10:15.473Z,73.33
2023-04-30T02:12:42.148Z,73.61
2023-04-30T02:15:09.624Z,73.39
2023-04-30T02:17:36.465Z,73.48
2023-04-30T02:20:03.525Z,72.95
2023-04-30T02:22:30.180Z,73.37
2023-04-30T02:24:57.435Z,73.18
2023-04-30T02:27:26.140Z,72.96
2023-04-30T02:29:53.912Z,72.80
2023-04-30T02:32:20.848Z,72.86
2023-04-30T02:34:47.525Z,72.74
2023-04-30T02:37:14.285Z,72.56
2023-04-30T02:39:41.345Z,72.51
2023-04-30T02:42:08.377Z,72.66
2023-04-30T02:44:35.311Z,72.35
2023-04-30T02:47:02.596Z,72.33
2023-04-30T02:49:29.934Z,72.41
2023-04-30T02:51:56.656Z,72.70
2023-04-30T02:54:23.381Z,72.56
2023-04-30T02:56:50.018Z,72.55
2023-04-30T02:59:16.698Z,72.41
2023-04-30T03:01:43.533Z,72.50
2023-04-30T03:04:10.341Z,72.52
2023-04-30T03:06:37.178Z,72.40
2023-04-30T03:09:03.962Z,72.52
2023-04-30T03:11:30.681Z,72.49
2023-04-30T03:13:57.323Z,72.31
2023-04-30T03:16:24.091Z,72.59
2023-04-30T03:18:51.206Z,72.46
2023-04-30T03:21:17.866Z,72.21
2023-04-30T03:23:44.525Z,72.39
2023-04-30T03:26:11.212Z,72.72
2023-04-30T03:28:37.830Z,72.06
2023-04-30T03:31:05.520Z,72.57
2023-04-30T03:33:33.283Z,72.48
2023-04-30T03:36:00.153Z,72.11
2023-04-30T03:38:26.779Z,72.40
2023-04-30T03:40:53.455Z,71.99
2023-04-30T03:43:20.163Z,71.92
2023-04-30T03:45:47.052Z,72.39
2023-04-30T03:48:13.790Z,72.24
2023-04-30T03:50:40.791Z,72.03
2023-04-30T03:53:07.408Z,71.84
2023-04-30T03:55:34.469Z,71.81
2023-04-30T03:58:01.424Z,71.52
2023-04-30T04:00:28.175Z,71.50
2023-04-30T04:02:55.249Z,71.54
2023-04-30T04:05:22.039Z,71.49
2023-04-30T04:07:48.796Z,71.17
2023-04-30T04:10:15.712Z,71.40
2023-04-30T04:12:42.353Z,71.03
2023-04-30T04:15:09.624Z,71.20
2023-04-30T04:17:36.473Z,70.86
2023-04-30T04:20:06.105Z,70.93
2023-04-30T04:22:32.748Z,70.36
2023-04-30T04:24:59.485Z,70.42
2023-04-30T04:27:26.267Z,70.11
2023-04-30T04:29:53.411Z,70.00
2023-04-30T04:32:20.344Z,70.02
2023-04-30T04:34:47.382Z,69.95
2023-04-30T04:37:15.510Z,69.53
2023-04-30T04:39:42.148Z,69.68
2023-04-30T04:42:09.714Z,69.78
2023-04-30T04:44:36.441Z,69.88
2023-04-30T04:47:04.459Z,69.52
2023-04-30T04:49:31.136Z,69.48
2023-04-30T04:51:57.922Z,69.13
2023-04-30T04:54:24.675Z,69.16
2023-04-30T04:56:51.837Z,69.55
2023-04-30T04:59:19.039Z,69.35
2023-04-30T05:01:45.743Z,69.47
2023-04-30T05:04:13.895Z,69.27
2023-04-30T05:06:41.612Z,69.45
2023-04-30T05:09:09.505Z,69.64
2023-04-30T05:11:36.476Z,69.55
2023-04-30T05:14:03.250Z,69.07
2023-04-30T05:16:30.262Z,68.64
2023-04-30T05:18:56.989Z,68.93
2023-04-30T05:21:24.048Z,69.18
2023-04-30T05:23:50.688Z,68.98
2023-04-30T05:26:17.521Z,68.93
2023-04-30T05:28:44.220Z,68.94
2023-04-30T05:31:10.859Z,68.95
2023-04-30T05:33:37.468Z,68.75
2023-04-30T05:36:04.312Z,68.71
2023-04-30T05:38:30.942Z,69.00
2023-04-30T05:40:57.592Z,69.04
2023-04-30T05:43:24.339Z,68.84
2023-04-30T05:45:50.997Z,68.59
2023-04-30T05:48:17.689Z,68.34
2023-04-30T05:50:44.500Z,68.59
2023-04-30T05:53:11.369Z,68.81
2023-04-30T05:55:38.056Z,68.48
2023-04-30T05:58:04.693Z,68.61
2023-04-30T06:00:31.383Z,68.43
2023-04-30T06:02:58.175Z,68.25
2023-04-30T06:05:25.073Z,68.05
2023-04-30T06:07:51.721Z,68.35
2023-04-30T06:10:18.543Z,68.63
2023-04-30T06:12:45.270Z,68.39
2023-04-30T06:15:12.193Z,68.43
2023-04-30T06:17:38.941Z,68.50
2023-04-30T06:20:07.344Z,68.59
2023-04-30T06:22:34.518Z,68.39
2023-04-30T06:25:01.375Z,68.28
2023-04-30T06:27:28.265Z,68.17
2023-04-30T06:29:55.286Z,67.96
2023-04-30T06:32:22.192Z,68.23
2023-04-30T06:34:48.892Z,68.03
2023-04-30T06:37:15.803Z,68.32
2023-04-30T06:39:42.410Z,68.53
2023-04-30T06:42:09.054Z,68.08
2023-04-30T06:44:35.785Z,68.29
2023-04-30T06:47:02.617Z,67.96
2023-04-30T06:49:29.378Z,67.49
2023-04-30T06:51:58.611Z,67.54
2023-04-30T06:54:26.834Z,67.57
2023-04-30T06:56:53.705Z,67.39
2023-04-30T06:59:20.320Z,67.13
2023-04-30T07:01:47.145Z,67.53
2023-04-30T07:04:13.922Z,67.27
2023-04-30T07:06:40.723Z,66.73
2023-04-30T07:09:07.520Z,66.91
2023-04-30T07:11:34.156Z,67.31
2023-04-30T07:14:00.897Z,66.74
2023-04-30T07:16:28.082Z,66.63
2023-04-30T07:18:54.937Z,66.61
2023-04-30T07:21:22.027Z,66.50
2023-04-30T07:23:51.660Z,66.51
2023-04-30T07:26:18.423Z,66.37
2023-04-30T07:28:48.592Z,66.95
2023-04-30T07:31:15.410Z,66.81
2023-04-30T07:33:42.496Z,66.01
2023-04-30T07:36:09.163Z,66.15
2023-04-30T07:38:36.820Z,66.45
2023-04-30T07:41:03.474Z,66.48
2023-04-30T07:43:31.917Z,65.72
2023-04-30T07:45:59.501Z,65.28
2023-04-30T07:48:26.192Z,65.38
2023-04-30T07:50:53.186Z,65.08
2023-04-30T07:53:20.010Z,65.21
2023-04-30T07:55:46.799Z,65.02
2023-04-30T07:58:13.423Z,64.90
2023-04-30T08:00:40.355Z,64.36
2023-04-30T08:03:07.104Z,64.07
2023-04-30T08:05:33.956Z,62.67
2023-04-30T08:08:01.072Z,63.36
2023-04-30T08:10:27.748Z,62.98
2023-04-30T08:12:54.433Z,62.09
2023-04-30T08:15:22.068Z,61.79
2023-04-30T08:17:52.004Z,61.89
2023-04-30T08:20:19.078Z,62.22
2023-04-30T08:22:46.567Z,61.43
2023-04-30T08:25:13.375Z,61.41
2023-04-30T08:27:40.282Z,60.91
2023-04-30T08:30:07.774Z,59.99
2023-04-30T08:32:37.815Z,59.33
2023-04-30T08:35:06.220Z,59.98
2023-04-30T08:37:32.970Z,59.74
2023-04-30T08:40:00.365Z,59.91
2023-04-30T08:42:31.586Z,60.00
2023-04-30T08:45:03.692Z,59.74
2023-04-30T08:47:31.261Z,59.91
2023-04-30T08:49:58.053Z,60.08
2023-04-30T08:52:27.048Z,60.03
2023-04-30T08:54:57.477Z,60.06
2023-04-30T08:57:24.160Z,60.17
2023-04-30T08:59:50.930Z,59.94
2023-04-30T09:02:17.570Z,59.43
2023-04-30T09:04:45.170Z,59.38
2023-04-30T09:07:14.554Z,59.24
2023-04-30T09:09:41.343Z,58.83
2023-04-30T09:12:18.585Z,58.34
2023-04-30T09:15:02.369Z,57.79
2023-04-30T09:17:29.913Z,57.57
2023-04-30T09:20:10.151Z,57.83
2023-04-30T09:22:38.304Z,56.59
2023-04-30T09:25:05.940Z,55.71
2023-04-30T09:27:32.702Z,55.77
2023-04-30T09:29:59.545Z,55.63
2023-04-30T09:32:26.364Z,55.66
2023-04-30T09:34:53.217Z,54.83
2023-04-30T09:37:19.854Z,55.21
2023-04-30T09:39:57.117Z,55.08
2023-04-30T09:42:23.977Z,54.82
2023-04-30T09:44:53.923Z,53.18
2023-04-30T09:47:21.148Z,52.64
2023-04-30T09:49:52.131Z,52.66
2023-04-30T09:52:19.656Z,52.45
2023-04-30T09:54:47.902Z,52.25
2023-04-30T09:57:16.245Z,52.56
2023-04-30T09:59:46.237Z,51.96
2023-04-30T10:02:20.263Z,50.84
2023-04-30T10:04:53.973Z,50.80
2023-04-30T10:07:22.851Z,51.61
2023-04-30T10:09:51.814Z,50.50
2023-04-30T10:12:27.179Z,49.62
2023-04-30T10:15:03.141Z,50.05
2023-04-30T10:17:33.934Z,50.27
2023-04-30T10:20:07.549Z,49.40
2023-04-30T10:22:35.697Z,49.91
2023-04-30T10:25:03.097Z,49.95
2023-04-30T10:27:30.732Z,48.64
2023-04-30T10:29:59.197Z,48.44
2023-04-30T10:32:34.529Z,49.12
2023-04-30T10:35:19.213Z,48.13
2023-04-30T10:37:57.886Z,47.63
2023-04-30T10:40:27.301Z,47.29
2023-04-30T10:42:55.169Z,47.80
2023-04-30T10:45:43.945Z,46.69
2023-04-30T10:48:11.190Z,45.53
2023-04-30T10:50:45.009Z,46.19
2023-04-30T10:53:17.367Z,45.76
2023-04-30T10:55:51.989Z,46.45
2023-04-30T10:58:29.963Z,45.20
2023-04-30T11:01:13.980Z,43.82
2023-04-30T11:03:43.209Z,44.28
2023-04-30T11:06:20.126Z,44.38
2023-04-30T11:08:47.034Z,44.75
2023-04-30T11:11:22.993Z,43.91
2023-04-30T11:14:01.770Z,43.63
2023-04-30T11:16:34.334Z,44.21
2023-04-30T11:22:13.448Z,45.01
2023-04-30T11:25:13.060Z,45.39
2023-04-30T11:27:45.143Z,45.55
2023-04-30T11:30:16.856Z,45.11
2023-04-30T11:32:48.367Z,45.89
2023-04-30T11:35:19.766Z,45.61
2023-04-30T11:37:48.873Z,45.41
2023-04-30T11:40:15.776Z,45.13
2023-04-30T11:42:45.918Z,43.73
2023-04-30T11:45:17.589Z,43.17
2023-04-30T11:47:46.806Z,42.84
2023-04-30T11:50:16.365Z,43.03
2023-04-30T11:52:50.186Z,42.48
2023-04-30T11:55:25.548Z,41.08
2023-04-30T11:57:55.726Z,41.74
2023-04-30T12:00:29.911Z,41.23
2023-04-30T12:02:58.132Z,40.46
2023-04-30T12:05:26.866Z,40.18
2023-04-30T12:07:56.978Z,38.58
2023-04-30T12:10:24.845Z,38.33
2023-04-30T12:12:53.199Z,38.38
2023-04-30T12:15:29.059Z,37.58
2023-04-30T12:17:57.616Z,38.07
2023-04-30T12:20:28.320Z,38.50
2023-04-30T12:22:55.385Z,38.50
2023-04-30T12:25:23.276Z,38.97
2023-04-30T12:27:52.848Z,38.70
2023-04-30T12:30:25.610Z,38.02
2023-04-30T12:32:54.771Z,37.69
2023-04-30T12:35:23.535Z,38.01
2023-04-30T12:38:01.376Z,37.04
2023-04-30T12:40:28.425Z,37.62
2023-04-30T12:43:02.051Z,36.51
2023-04-30T12:45:54.482Z,36.52
2023-04-30T12:48:24.625Z,36.44
2023-04-30T12:50:54.909Z,34.83
2023-04-30T12:53:22.450Z,33.47
2023-04-30T12:56:12.938Z,33.55
2023-04-30T12:58:40.714Z,33.79
2023-04-30T13:01:12.237Z,33.76
2023-04-30T13:03:39.529Z,33.90
2023-04-30T13:06:07.076Z,34.03
2023-04-30T13:08:42.275Z,33.82
2023-04-30T13:11:16.926Z,33.65
2023-04-30T13:13:43.701Z,32.69
2023-04-30T13:16:10.506Z,32.53
2023-04-30T13:18:37.279Z,32.41
2023-04-30T13:21:04.040Z,33.01
2023-04-30T13:23:35.869Z,33.17
2023-04-30T13:26:08.380Z,32.22
2023-04-30T13:28:35.116Z,32.10
2023-04-30T13:31:02.804Z,32.06
2023-04-30T13:33:29.677Z,32.30
2023-04-30T13:35:56.329Z,32.92
2023-04-30T13:38:22.984Z,32.52
2023-04-30T13:40:50.351Z,32.09
2023-04-30T13:43:17.020Z,32.07
2023-04-30T13:45:43.667Z,32.54
2023-04-30T13:48:11.105Z,32.50
2023-04-30T13:50:37.803Z,32.31
2023-04-30T13:53:04.573Z,32.00
2023-04-30T13:55:31.296Z,32.10
2023-04-30T13:57:58.471Z,32.32
2023-04-30T14:00:25.439Z,31.90
2023-04-30T14:02:53.090Z,32.11
2023-04-30T14:05:19.789Z,31.33
2023-04-30T14:07:46.442Z,31.82
2023-04-30T14:10:13.352Z,32.00
2023-04-30T14:12:40.429Z,31.75
2023-04-30T14:15:08.361Z,31.69
2023-04-30T14:17:35.270Z,31.28
2023-04-30T14:20:02.302Z,30.93
2023-04-30T14:22:29.380Z,30.62
2023-04-30T14:24:56.108Z,31.38
2023-04-30T14:27:23.539Z,31.04
2023-04-30T14:29:50.265Z,31.35
2023-04-30T14:32:17.275Z,31.02
2023-04-30T14:34:44.945Z,31.40
2023-04-30T14:37:11.753Z,31.34
2023-04-30T14:39:38.658Z,31.32
2023-04-30T14:42:05.749Z,31.15
2023-04-30T14:44:32.548Z,30.78
2023-04-30T14:46:59.250Z,31.23
2023-04-30T14:49:25.907Z,31.40
2023-04-30T14:51:52.811Z,30.61
2023-04-30T14:54:19.563Z,30.22
2023-04-30T14:56:47.326Z,30.56
2023-04-30T14:59:14.834Z,30.40
2023-04-30T15:01:42.229Z,30.49
2023-04-30T15:04:09.548Z,30.08
2023-04-30T15:06:36.515Z,30.20
2023-04-30T15:09:04.116Z,29.68
2023-04-30T15:11:31.102Z,29.95
2023-04-30T15:13:57.869Z,29.91
2023-04-30T15:16:25.649Z,29.63
2023-04-30T15:18:52.798Z,30.17
2023-04-30T15:21:20.047Z,29.72
2023-04-30T15:23:46.813Z,30.56
2023-04-30T15:26:13.513Z,30.63
2023-04-30T15:28:40.370Z,30.61
2023-04-30T15:31:07.297Z,30.30
2023-04-30T15:33:39.529Z,29.73
2023-04-30T15:36:06.606Z,30.16
2023-04-30T15:38:33.546Z,30.10
2023-04-30T15:41:00.454Z,30.76
2023-04-30T15:43:27.118Z,30.40
2023-04-30T15:45:54.177Z,30.55
2023-04-30T15:48:20.833Z,29.82
2023-04-30T15:50:47.457Z,28.97
2023-04-30T15:53:14.089Z,28.97
2023-04-30T15:55:40.972Z,29.05
2023-04-30T15:58:07.655Z,29.17
2023-04-30T16:00:34.392Z,28.99
2023-04-30T16:03:01.275Z,29.29
2023-04-30T16:05:28.151Z,29.23
2023-04-30T16:07:54.874Z,29.73
2023-04-30T16:10:21.663Z,29.00
2023-04-30T16:12:48.682Z,28.64
2023-04-30T16:15:15.480Z,28.21
2023-04-30T16:17:42.397Z,28.20
2023-04-30T16:20:09.565Z,28.86
2023-04-30T16:22:37.379Z,28.45
2023-04-30T16:25:04.694Z,28.76
2023-04-30T16:27:31.521Z,28.60
2023-04-30T16:29:58.416Z,28.75
2023-04-30T16:32:25.710Z,28.52
2023-04-30T16:34:52.455Z,28.10
2023-04-30T16:37:19.334Z,28.49
2023-04-30T16:39:46.047Z,28.45
2023-04-30T16:42:12.826Z,28.67
2023-04-30T16:44:39.727Z,27.93
2023-04-30T16:47:06.604Z,28.54
2023-04-30T16:49:33.241Z,28.23
2023-04-30T16:52:00.179Z,28.67
2023-04-30T16:54:26.828Z,27.94
2023-04-30T16:56:53.588Z,27.94
2023-04-30T16:59:20.272Z,27.68
2023-04-30T17:01:47.333Z,27.76
2023-04-30T17:04:14.294Z,28.01
2023-04-30T17:06:41.470Z,28.13
2023-04-30T17:09:08.179Z,28.02
2023-04-30T17:11:34.902Z,28.50
2023-04-30T17:14:01.732Z,28.67
2023-04-30T17:16:28.441Z,28.97
2023-04-30T17:18:55.178Z,29.00
2023-04-30T17:21:21.896Z,29.29
2023-04-30T17:23:48.582Z,29.47
2023-04-30T17:26:15.267Z,29.78
2023-04-30T17:28:42.099Z,29.75
2023-04-30T17:31:09.492Z,29.79
2023-04-30T17:33:36.228Z,29.89
2023-04-30T17:36:03.190Z,29.92
2023-04-30T17:38:29.868Z,30.19
2023-04-30T17:40:57.714Z,30.28
2023-04-30T17:43:24.725Z,30.21
2023-04-30T17:45:53.626Z,29.94
2023-04-30T17:48:20.449Z,30.29
2023-04-30T17:50:47.198Z,30.36
2023-04-30T17:53:14.223Z,30.66
2023-04-30T17:55:41.173Z,30.59
2023-04-30T17:58:10.280Z,30.99
2023-04-30T18:00:39.375Z,30.90
2023-04-30T18:03:06.654Z,30.92
2023-04-30T18:05:35.568Z,31.29
2023-04-30T18:08:02.594Z,31.63
2023-04-30T18:10:29.514Z,31.22
2023-04-30T18:12:58.820Z,31.28
2023-04-30T18:15:26.052Z,31.48
2023-04-30T18:17:53.318Z,31.55
2023-04-30T18:20:21.872Z,31.96
2023-04-30T18:22:48.543Z,32.03
2023-04-30T18:25:17.460Z,32.32
2023-04-30T18:27:44.365Z,32.51
2023-04-30T18:30:12.628Z,32.60
2023-04-30T18:32:39.698Z,32.90
2023-04-30T18:35:06.737Z,33.35
2023-04-30T18:37:33.980Z,33.10
2023-04-30T18:40:00.662Z,33.10
2023-04-30T18:42:27.432Z,33.26
2023-04-30T18:44:54.429Z,33.32
2023-04-30T18:47:21.159Z,33.83
2023-04-30T18:49:47.820Z,33.87
2023-04-30T18:52:14.452Z,33.69
2023-04-30T18:54:42.410Z,33.81
2023-04-30T18:57:12.452Z,34.31
2023-04-30T18:59:39.720Z,34.44
2023-04-30T19:02:06.482Z,34.96
2023-04-30T19:04:33.185Z,34.99
2023-04-30T19:06:59.827Z,35.37
2023-04-30T19:09:26.534Z,35.44
2023-04-30T19:11:53.263Z,35.47
2023-04-30T19:14:20.147Z,35.70
2023-04-30T19:16:47.181Z,35.75
2023-04-30T19:19:13.968Z,35.93
2023-04-30T19:21:40.878Z,35.55
2023-04-30T19:24:07.674Z,36.28
2023-04-30T19:26:36.053Z,36.30
2023-04-30T19:29:03.515Z,36.45
2023-04-30T19:31:30.452Z,36.95
2023-04-30T19:34:00.503Z,36.59
2023-04-30T19:36:27.459Z,37.10
2023-04-30T19:38:54.180Z,36.77
2023-04-30T19:41:21.815Z,36.47
2023-04-30T19:43:48.843Z,36.69
2023-04-30T19:46:16.108Z,36.97
2023-04-30T19:48:45.622Z,37.39
2023-04-30T19:51:12.618Z,36.97
2023-04-30T19:53:39.360Z,37.16
2023-04-30T19:56:06.128Z,37.94
2023-04-30T19:58:32.764Z,37.94
2023-04-30T20:01:00.376Z,37.40
2023-04-30T20:03:27.141Z,37.89
2023-04-30T20:05:54.164Z,37.94
2023-04-30T20:08:21.940Z,37.86
2023-04-30T20:10:49.245Z,38.55
2023-04-30T20:13:17.343Z,37.88
2023-04-30T20:15:44.206Z,38.26
2023-04-30T20:18:11.377Z,38.10
2023-04-30T20:20:38.323Z,38.15
2023-04-30T20:23:14.208Z,38.01
2023-04-30T20:25:46.049Z,38.30
2023-04-30T20:28:13.971Z,38.29
2023-04-30T20:30:44.571Z,38.24
2023-04-30T20:33:12.673Z,38.94
2023-04-30T20:35:46.415Z,38.99
2023-04-30T20:38:14.618Z,38.53
2023-04-30T20:40:41.314Z,38.96
2023-04-30T20:43:10.333Z,39.17
2023-04-30T20:45:37.324Z,38.83
2023-04-30T20:48:04.262Z,38.93
2023-04-30T20:50:34.431Z,39.27
2023-04-30T20:53:01.538Z,39.41
2023-04-30T20:55:28.205Z,39.43
2023-04-30T20:57:54.912Z,39.44
2023-04-30T21:00:21.667Z,39.57
2023-04-30T21:02:48.972Z,39.80
2023-04-30T21:05:15.696Z,39.56
2023-04-30T21:07:42.515Z,39.65
2023-04-30T21:10:09.343Z,39.62
2023-04-30T21:12:36.027Z,39.84
2023-04-30T21:15:02.764Z,39.81
2023-04-30T21:17:29.557Z,39.81
2023-04-30T21:19:57.280Z,40.02
2023-04-30T21:22:24.716Z,40.30
2023-04-30T21:24:54.276Z,40.08
2023-04-30T21:27:21.572Z,39.91
2023-04-30T21:29:48.577Z,40.30
2023-04-30T21:32:15.286Z,40.46
2023-04-30T21:34:42.026Z,40.57
2023-04-30T21:37:08.753Z,40.50
2023-04-30T21:39:35.465Z,40.68
2023-04-30T21:42:04.724Z,40.99
2023-04-30T21:44:32.917Z,40.91
2023-04-30T21:47:00.106Z,40.93
2023-04-30T21:49:27.122Z,41.11
2023-04-30T21:51:53.826Z,41.25
2023-04-30T21:54:20.804Z,40.91
2023-04-30T21:56:47.978Z,41.26
2023-04-30T21:59:14.598Z,41.17
2023-04-30T22:01:41.358Z,40.84
2023-04-30T22:04:08.780Z,41.31
2023-04-30T22:06:35.912Z,41.44
2023-04-30T22:09:02.648Z,41.37
2023-04-30T22:11:29.460Z,41.71
2023-04-30T22:13:56.094Z,41.37
2023-04-30T22:16:22.998Z,41.46
2023-04-30T22:18:49.717Z,41.58
2023-04-30T22:21:16.375Z,41.24
2023-04-30T22:23:43.209Z,41.31
2023-04-30T22:26:11.336Z,41.64
2023-04-30T22:28:38.341Z,41.82
2023-04-30T22:31:05.200Z,41.90
2023-04-30T22:33:36.263Z,41.77
2023-04-30T22:36:06.628Z,41.99
2023-04-30T22:38:33.795Z,41.81
2023-04-30T22:41:00.738Z,41.70
2023-04-30T22:43:30.794Z,41.79
2023-04-30T22:45:59.225Z,42.15
2023-04-30T22:48:27.724Z,42.53
2023-04-30T22:50:55.535Z,42.28
2023-04-30T22:53:22.508Z,42.11
2023-04-30T22:55:49.961Z,42.40
2023-04-30T22:58:17.507Z,42.66
2023-04-30T23:00:44.347Z,42.75
2023-04-30T23:03:11.474Z,42.70
2023-04-30T23:05:38.148Z,42.94
2023-04-30T23:08:04.896Z,42.90
2023-04-30T23:10:31.586Z,43.09
2023-04-30T23:12:58.927Z,42.92
2023-04-30T23:15:26.400Z,42.88
2023-04-30T23:17:54.504Z,42.68
2023-04-30T23:20:22.725Z,42.67
2023-04-30T23:22:49.839Z,42.98
2023-04-30T23:25:16.973Z,43.28
2023-04-30T23:27:45.072Z,43.09
2023-04-30T23:30:12.065Z,43.27
2023-04-30T23:32:39.121Z,43.12
2023-04-30T23:35:07.908Z,43.31
2023-04-30T23:37:35.817Z,43.50
2023-04-30T23:40:05.025Z,43.41
2023-04-30T23:42:31.704Z,43.10
2023-04-30T23:44:58.316Z,43.22
2023-04-30T23:47:25.014Z,43.77
2023-04-30T23:49:51.661Z,43.79
2023-04-30T23:52:19.117Z,43.75
2023-04-30T23:54:45.844Z,43.80
2023-04-30T23:57:12.498Z,43.69
2023-04-30T23:59:39.851Z,43.42
